sensor_id;sensor_type;location;lat;lon;timestamp;temperature;humidity
20881;DHT22;10600;53.096;8.802;2023-05-16T00:00:19;10.50;99.90
20881;DHT22;10600;53.096;8.802;2023-05-16T00:01:19;10.50;99.90
20881;DHT22;10600;53.096;8.802;2023-05-16T00:02:21;10.50;99.90
20881;DHT22;10600;53.096;8.802;2023-05-16T00:03:22;10.40;99.90
20881;DHT22;10600;53.096;8.802;2023-05-16T00:04:22;10.40;99.90
20881;DHT22;10600;53.096;8.802;2023-05-16T00:05:24;10.40;99.90
20881;DHT22;10600;53.096;8.802;2023-05-16T00:06:25;10.30;99.90
20881;DHT22;10600;53.096;8.802;2023-05-16T00:07:25;10.30;99.90
20881;DHT22;10600;53.096;8.802;2023-05-16T00:08:26;10.30;99.90
20881;DHT22;10600;53.096;8.802;2023-05-16T00:09:27;10.20;99.90
20881;DHT22;10600;53.096;8.802;2023-05-16T00:10:27;10.20;99.90
20881;DHT22;10600;53.096;8.802;2023-05-16T00:11:28;10.20;99.90
20881;DHT22;10600;53.096;8.802;2023-05-16T00:12:29;10.20;99.90
20881;DHT22;10600;53.096;8.802;2023-05-16T00:13:29;10.10;99.90
20881;DHT22;10600;53.096;8.802;2023-05-16T00:14:31;10.10;99.90
20881;DHT22;10600;53.096;8.802;2023-05-16T00:15:31;10.10;99.90
20881;DHT22;10600;53.096;8.802;2023-05-16T00:16:32;10.10;99.90
20881;DHT22;10600;53.096;8.802;2023-05-16T00:17:36;10.10;99.90
20881;DHT22;10600;53.096;8.802;2023-05-16T00:18:36;10.00;99.90
20881;DHT22;10600;53.096;8.802;2023-05-16T00:19:38;10.00;99.90
20881;DHT22;10600;53.096;8.802;2023-05-16T00:20:38;10.10;99.90
20881;DHT22;10600;53.096;8.802;2023-05-16T00:21:40;10.00;99.90
20881;DHT22;10600;53.096;8.802;2023-05-16T00:22:40;10.00;99.90
20881;DHT22;10600;53.096;8.802;2023-05-16T00:23:41;10.00;99.90
20881;DHT22;10600;53.096;8.802;2023-05-16T00:24:42;10.00;99.90
20881;DHT22;10600;53.096;8.802;2023-05-16T00:25:42;10.10;99.90
20881;DHT22;10600;53.096;8.802;2023-05-16T00:26:43;10.00;99.90
20881;DHT22;10600;53.096;8.802;2023-05-16T00:27:44;10.10;99.90
20881;DHT22;10600;53.096;8.802;2023-05-16T00:28:45;10.00;99.90
20881;DHT22;10600;53.096;8.802;2023-05-16T00:29:45;10.00;99.90
20881;DHT22;10600;53.096;8.802;2023-05-16T00:30:46;10.10;99.90
20881;DHT22;10600;53.096;8.802;2023-05-16T00:31:47;10.10;99.90
20881;DHT22;10600;53.096;8.802;2023-05-16T00:32:47;10.10;99.90
20881;DHT22;10600;53.096;8.802;2023-05-16T00:33:48;10.10;99.90
20881;DHT22;10600;53.096;8.802;2023-05-16T00:34:49;10.10;99.90
20881;DHT22;10600;53.096;8.802;2023-05-16T00:35:49;10.10;99.90
20881;DHT22;10600;53.096;8.802;2023-05-16T00:36:51;10.00;99.90
20881;DHT22;10600;53.096;8.802;2023-05-16T00:37:52;10.10;99.90
20881;DHT22;10600;53.096;8.802;2023-05-16T00:38:52;10.10;99.90
20881;DHT22;10600;53.096;8.802;2023-05-16T00:39:53;10.10;99.90
20881;DHT22;10600;53.096;8.802;2023-05-16T00:40:54;10.10;99.90
20881;DHT22;10600;53.096;8.802;2023-05-16T00:41:54;10.00;99.90
20881;DHT22;10600;53.096;8.802;2023-05-16T00:42:56;10.10;99.90
20881;DHT22;10600;53.096;8.802;2023-05-16T00:43:57;10.10;99.90
20881;DHT22;10600;53.096;8.802;2023-05-16T00:44:57;10.10;99.90
20881;DHT22;10600;53.096;8.802;2023-05-16T00:45:58;10.10;99.90
20881;DHT22;10600;53.096;8.802;2023-05-16T00:47:00;10.10;99.90
20881;DHT22;10600;53.096;8.802;2023-05-16T00:48:02;10.10;99.90
20881;DHT22;10600;53.096;8.802;2023-05-16T00:49:03;10.10;99.90
20881;DHT22;10600;53.096;8.802;2023-05-16T00:50:04;10.10;99.90
20881;DHT22;10600;53.096;8.802;2023-05-16T00:51:06;10.10;99.90
20881;DHT22;10600;53.096;8.802;2023-05-16T00:52:08;10.10;99.90
20881;DHT22;10600;53.096;8.802;2023-05-16T00:53:09;10.10;99.90
20881;DHT22;10600;53.096;8.802;2023-05-16T00:54:11;10.10;99.90
20881;DHT22;10600;53.096;8.802;2023-05-16T00:55:12;10.10;99.90
20881;DHT22;10600;53.096;8.802;2023-05-16T00:56:13;10.10;99.90
20881;DHT22;10600;53.096;8.802;2023-05-16T00:57:14;10.10;99.90
20881;DHT22;10600;53.096;8.802;2023-05-16T00:58:15;10.10;99.90
20881;DHT22;10600;53.096;8.802;2023-05-16T00:59:17;10.10;99.90
20881;DHT22;10600;53.096;8.802;2023-05-16T01:00:18;10.10;99.90
20881;DHT22;10600;53.096;8.802;2023-05-16T01:01:20;10.10;99.90
20881;DHT22;10600;53.096;8.802;2023-05-16T01:02:22;10.10;99.90
20881;DHT22;10600;53.096;8.802;2023-05-16T01:03:23;10.10;99.90
20881;DHT22;10600;53.096;8.802;2023-05-16T01:04:24;10.10;99.90
20881;DHT22;10600;53.096;8.802;2023-05-16T01:05:24;10.10;99.90
20881;DHT22;10600;53.096;8.802;2023-05-16T01:06:25;10.10;99.90
20881;DHT22;10600;53.096;8.802;2023-05-16T01:07:26;10.10;99.90
20881;DHT22;10600;53.096;8.802;2023-05-16T01:08:26;10.10;99.90
20881;DHT22;10600;53.096;8.802;2023-05-16T01:09:27;10.10;99.90
20881;DHT22;10600;53.096;8.802;2023-05-16T01:10:59;10.10;99.90
20881;DHT22;10600;53.096;8.802;2023-05-16T01:16:01;10.10;99.90
20881;DHT22;10600;53.096;8.802;2023-05-16T01:17:26;10.10;99.90
20881;DHT22;10600;53.096;8.802;2023-05-16T01:21:04;10.20;99.90
20881;DHT22;10600;53.096;8.802;2023-05-16T01:22:15;10.20;99.90
20881;DHT22;10600;53.096;8.802;2023-05-16T01:26:26;10.20;99.90
20881;DHT22;10600;53.096;8.802;2023-05-16T01:27:28;10.20;99.90
20881;DHT22;10600;53.096;8.802;2023-05-16T01:28:29;10.20;99.90
20881;DHT22;10600;53.096;8.802;2023-05-16T01:29:31;10.20;99.90
20881;DHT22;10600;53.096;8.802;2023-05-16T01:30:34;10.20;99.90
20881;DHT22;10600;53.096;8.802;2023-05-16T01:31:35;10.20;99.90
20881;DHT22;10600;53.096;8.802;2023-05-16T01:32:35;10.20;99.90
20881;DHT22;10600;53.096;8.802;2023-05-16T01:33:36;10.20;99.90
20881;DHT22;10600;53.096;8.802;2023-05-16T01:34:37;10.20;99.90
20881;DHT22;10600;53.096;8.802;2023-05-16T01:35:50;10.20;99.90
20881;DHT22;10600;53.096;8.802;2023-05-16T01:38:24;10.20;99.90
20881;DHT22;10600;53.096;8.802;2023-05-16T01:39:46;10.20;99.90
20881;DHT22;10600;53.096;8.802;2023-05-16T01:42:59;10.20;99.90
20881;DHT22;10600;53.096;8.802;2023-05-16T01:44:06;10.20;99.90
20881;DHT22;10600;53.096;8.802;2023-05-16T01:46:33;10.20;99.90
20881;DHT22;10600;53.096;8.802;2023-05-16T01:47:40;10.20;99.90
20881;DHT22;10600;53.096;8.802;2023-05-16T01:49:06;10.20;99.90
20881;DHT22;10600;53.096;8.802;2023-05-16T01:50:16;10.20;99.90
20881;DHT22;10600;53.096;8.802;2023-05-16T01:51:21;10.20;99.90
20881;DHT22;10600;53.096;8.802;2023-05-16T01:52:27;10.20;99.90
20881;DHT22;10600;53.096;8.802;2023-05-16T01:53:36;10.20;99.90
20881;DHT22;10600;53.096;8.802;2023-05-16T01:54:38;10.20;99.90
20881;DHT22;10600;53.096;8.802;2023-05-16T01:55:44;10.20;99.90
20881;DHT22;10600;53.096;8.802;2023-05-16T01:56:51;10.20;99.90
20881;DHT22;10600;53.096;8.802;2023-05-16T01:57:52;10.20;99.90
20881;DHT22;10600;53.096;8.802;2023-05-16T01:58:54;10.20;99.90
20881;DHT22;10600;53.096;8.802;2023-05-16T01:59:57;10.20;99.90
20881;DHT22;10600;53.096;8.802;2023-05-16T02:01:03;10.20;99.90
20881;DHT22;10600;53.096;8.802;2023-05-16T02:02:04;10.10;99.90
20881;DHT22;10600;53.096;8.802;2023-05-16T02:03:05;10.10;99.90
20881;DHT22;10600;53.096;8.802;2023-05-16T02:04:06;10.10;99.90
20881;DHT22;10600;53.096;8.802;2023-05-16T02:05:07;10.10;99.90
20881;DHT22;10600;53.096;8.802;2023-05-16T02:06:07;10.10;99.90
20881;DHT22;10600;53.096;8.802;2023-05-16T02:07:08;10.10;99.90
20881;DHT22;10600;53.096;8.802;2023-05-16T02:08:09;10.10;99.90
20881;DHT22;10600;53.096;8.802;2023-05-16T02:09:09;10.10;99.90
20881;DHT22;10600;53.096;8.802;2023-05-16T02:10:11;10.10;99.90
20881;DHT22;10600;53.096;8.802;2023-05-16T02:11:11;10.10;99.90
20881;DHT22;10600;53.096;8.802;2023-05-16T02:12:12;10.10;99.90
20881;DHT22;10600;53.096;8.802;2023-05-16T02:13:13;10.10;99.90
20881;DHT22;10600;53.096;8.802;2023-05-16T02:14:13;10.10;99.90
20881;DHT22;10600;53.096;8.802;2023-05-16T02:15:14;10.10;99.90
20881;DHT22;10600;53.096;8.802;2023-05-16T02:16:15;10.10;99.90
20881;DHT22;10600;53.096;8.802;2023-05-16T02:17:15;10.10;99.90
20881;DHT22;10600;53.096;8.802;2023-05-16T02:18:16;10.10;99.90
20881;DHT22;10600;53.096;8.802;2023-05-16T02:19:18;10.00;99.90
20881;DHT22;10600;53.096;8.802;2023-05-16T02:20:18;10.00;99.90
20881;DHT22;10600;53.096;8.802;2023-05-16T02:21:19;10.00;99.90
20881;DHT22;10600;53.096;8.802;2023-05-16T02:22:20;10.10;99.90
20881;DHT22;10600;53.096;8.802;2023-05-16T02:23:20;10.00;99.90
20881;DHT22;10600;53.096;8.802;2023-05-16T02:24:21;10.10;99.90
20881;DHT22;10600;53.096;8.802;2023-05-16T02:25:23;10.10;99.90
20881;DHT22;10600;53.096;8.802;2023-05-16T02:26:23;10.00;99.90
20881;DHT22;10600;53.096;8.802;2023-05-16T02:27:24;10.00;99.90
20881;DHT22;10600;53.096;8.802;2023-05-16T02:28:24;10.10;99.90
20881;DHT22;10600;53.096;8.802;2023-05-16T02:29:25;10.10;99.90
20881;DHT22;10600;53.096;8.802;2023-05-16T02:30:26;10.00;99.90
20881;DHT22;10600;53.096;8.802;2023-05-16T02:31:31;10.10;99.90
20881;DHT22;10600;53.096;8.802;2023-05-16T02:32:32;10.10;99.90
20881;DHT22;10600;53.096;8.802;2023-05-16T02:33:33;10.10;99.90
20881;DHT22;10600;53.096;8.802;2023-05-16T02:34:34;10.00;99.90
20881;DHT22;10600;53.096;8.802;2023-05-16T02:35:34;10.00;99.90
20881;DHT22;10600;53.096;8.802;2023-05-16T02:36:35;10.00;99.90
20881;DHT22;10600;53.096;8.802;2023-05-16T02:37:36;10.00;99.90
20881;DHT22;10600;53.096;8.802;2023-05-16T02:38:37;10.00;99.90
20881;DHT22;10600;53.096;8.802;2023-05-16T02:39:37;10.00;99.90
20881;DHT22;10600;53.096;8.802;2023-05-16T02:40:38;10.00;99.90
20881;DHT22;10600;53.096;8.802;2023-05-16T02:41:39;10.00;99.90
20881;DHT22;10600;53.096;8.802;2023-05-16T02:42:39;10.00;99.90
20881;DHT22;10600;53.096;8.802;2023-05-16T02:43:40;10.00;99.90
20881;DHT22;10600;53.096;8.802;2023-05-16T02:44:41;10.00;99.90
20881;DHT22;10600;53.096;8.802;2023-05-16T02:45:41;10.00;99.90
20881;DHT22;10600;53.096;8.802;2023-05-16T02:46:42;10.00;99.90
20881;DHT22;10600;53.096;8.802;2023-05-16T02:47:42;10.00;99.90
20881;DHT22;10600;53.096;8.802;2023-05-16T02:48:43;9.90;99.90
20881;DHT22;10600;53.096;8.802;2023-05-16T02:49:44;9.90;99.90
20881;DHT22;10600;53.096;8.802;2023-05-16T02:50:44;9.90;99.90
20881;DHT22;10600;53.096;8.802;2023-05-16T02:51:45;9.80;99.90
20881;DHT22;10600;53.096;8.802;2023-05-16T02:52:46;9.80;99.90
20881;DHT22;10600;53.096;8.802;2023-05-16T02:53:47;9.80;99.90
20881;DHT22;10600;53.096;8.802;2023-05-16T02:54:48;9.80;99.90
20881;DHT22;10600;53.096;8.802;2023-05-16T02:55:49;9.70;99.90
20881;DHT22;10600;53.096;8.802;2023-05-16T02:56:49;9.70;99.90
20881;DHT22;10600;53.096;8.802;2023-05-16T02:57:50;9.70;99.90
20881;DHT22;10600;53.096;8.802;2023-05-16T02:58:52;9.70;99.90
20881;DHT22;10600;53.096;8.802;2023-05-16T02:59:53;9.60;99.90
20881;DHT22;10600;53.096;8.802;2023-05-16T03:00:54;9.60;99.90
20881;DHT22;10600;53.096;8.802;2023-05-16T03:01:55;9.60;99.90
20881;DHT22;10600;53.096;8.802;2023-05-16T03:02:55;9.60;99.90
20881;DHT22;10600;53.096;8.802;2023-05-16T03:03:56;9.50;99.90
20881;DHT22;10600;53.096;8.802;2023-05-16T03:04:57;9.50;99.90
20881;DHT22;10600;53.096;8.802;2023-05-16T03:05:58;9.50;99.90
20881;DHT22;10600;53.096;8.802;2023-05-16T03:06:59;9.50;99.90
20881;DHT22;10600;53.096;8.802;2023-05-16T03:08:00;9.50;99.90
20881;DHT22;10600;53.096;8.802;2023-05-16T03:09:01;9.40;99.90
20881;DHT22;10600;53.096;8.802;2023-05-16T03:10:01;9.40;99.90
20881;DHT22;10600;53.096;8.802;2023-05-16T03:11:02;9.40;99.90
20881;DHT22;10600;53.096;8.802;2023-05-16T03:12:03;9.40;99.90
20881;DHT22;10600;53.096;8.802;2023-05-16T03:13:03;9.30;99.90
20881;DHT22;10600;53.096;8.802;2023-05-16T03:14:04;9.30;99.90
20881;DHT22;10600;53.096;8.802;2023-05-16T03:15:05;9.30;99.90
20881;DHT22;10600;53.096;8.802;2023-05-16T03:16:08;9.30;99.90
20881;DHT22;10600;53.096;8.802;2023-05-16T03:17:09;9.30;99.90
20881;DHT22;10600;53.096;8.802;2023-05-16T03:18:09;9.20;99.90
20881;DHT22;10600;53.096;8.802;2023-05-16T03:19:10;9.20;99.90
20881;DHT22;10600;53.096;8.802;2023-05-16T03:20:11;9.20;99.90
20881;DHT22;10600;53.096;8.802;2023-05-16T03:21:12;9.20;99.90
20881;DHT22;10600;53.096;8.802;2023-05-16T03:22:13;9.10;99.90
20881;DHT22;10600;53.096;8.802;2023-05-16T03:23:13;9.10;99.90
20881;DHT22;10600;53.096;8.802;2023-05-16T03:24:14;9.10;99.90
20881;DHT22;10600;53.096;8.802;2023-05-16T03:25:15;9.10;99.90
20881;DHT22;10600;53.096;8.802;2023-05-16T03:26:15;9.10;99.90
20881;DHT22;10600;53.096;8.802;2023-05-16T03:27:16;9.10;99.90
20881;DHT22;10600;53.096;8.802;2023-05-16T03:28:17;9.10;99.90
20881;DHT22;10600;53.096;8.802;2023-05-16T03:29:17;9.00;99.90
20881;DHT22;10600;53.096;8.802;2023-05-16T03:30:18;9.00;99.90
20881;DHT22;10600;53.096;8.802;2023-05-16T03:31:19;9.00;99.90
20881;DHT22;10600;53.096;8.802;2023-05-16T03:32:20;9.00;99.90
20881;DHT22;10600;53.096;8.802;2023-05-16T03:33:20;9.00;99.90
20881;DHT22;10600;53.096;8.802;2023-05-16T03:34:21;9.00;99.90
20881;DHT22;10600;53.096;8.802;2023-05-16T03:35:22;9.00;99.90
20881;DHT22;10600;53.096;8.802;2023-05-16T03:36:23;9.00;99.90
20881;DHT22;10600;53.096;8.802;2023-05-16T03:37:24;9.00;99.90
20881;DHT22;10600;53.096;8.802;2023-05-16T03:38:25;8.90;99.90
20881;DHT22;10600;53.096;8.802;2023-05-16T03:39:26;8.90;99.90
20881;DHT22;10600;53.096;8.802;2023-05-16T03:40:27;8.90;99.90
20881;DHT22;10600;53.096;8.802;2023-05-16T03:41:27;8.90;99.90
20881;DHT22;10600;53.096;8.802;2023-05-16T03:42:28;8.90;99.90
20881;DHT22;10600;53.096;8.802;2023-05-16T03:43:29;8.90;99.90
20881;DHT22;10600;53.096;8.802;2023-05-16T03:44:30;8.90;99.90
20881;DHT22;10600;53.096;8.802;2023-05-16T03:45:31;8.90;99.90
20881;DHT22;10600;53.096;8.802;2023-05-16T03:46:31;8.90;99.90
20881;DHT22;10600;53.096;8.802;2023-05-16T03:47:32;8.90;99.90
20881;DHT22;10600;53.096;8.802;2023-05-16T03:48:33;8.90;99.90
20881;DHT22;10600;53.096;8.802;2023-05-16T03:49:33;8.90;99.90
20881;DHT22;10600;53.096;8.802;2023-05-16T03:50:34;9.00;99.90
20881;DHT22;10600;53.096;8.802;2023-05-16T03:51:36;9.00;99.90
20881;DHT22;10600;53.096;8.802;2023-05-16T03:52:37;9.00;99.90
20881;DHT22;10600;53.096;8.802;2023-05-16T03:53:38;9.00;99.90
20881;DHT22;10600;53.096;8.802;2023-05-16T03:54:38;9.00;99.90
20881;DHT22;10600;53.096;8.802;2023-05-16T03:55:39;9.00;99.90
20881;DHT22;10600;53.096;8.802;2023-05-16T03:56:39;9.10;99.90
20881;DHT22;10600;53.096;8.802;2023-05-16T03:57:41;9.10;99.90
20881;DHT22;10600;53.096;8.802;2023-05-16T03:58:42;9.10;99.90
20881;DHT22;10600;53.096;8.802;2023-05-16T03:59:42;9.10;99.90
20881;DHT22;10600;53.096;8.802;2023-05-16T04:00:43;9.10;99.90
20881;DHT22;10600;53.096;8.802;2023-05-16T04:01:46;9.10;99.90
20881;DHT22;10600;53.096;8.802;2023-05-16T04:02:47;9.10;99.90
20881;DHT22;10600;53.096;8.802;2023-05-16T04:03:47;9.10;99.90
20881;DHT22;10600;53.096;8.802;2023-05-16T04:04:48;9.10;99.90
20881;DHT22;10600;53.096;8.802;2023-05-16T04:05:49;9.10;99.90
20881;DHT22;10600;53.096;8.802;2023-05-16T04:06:50;9.10;99.90
20881;DHT22;10600;53.096;8.802;2023-05-16T04:07:51;9.10;99.90
20881;DHT22;10600;53.096;8.802;2023-05-16T04:08:51;9.10;99.90
20881;DHT22;10600;53.096;8.802;2023-05-16T04:09:53;9.10;99.90
20881;DHT22;10600;53.096;8.802;2023-05-16T04:10:55;9.10;99.90
20881;DHT22;10600;53.096;8.802;2023-05-16T04:11:55;9.00;99.90
20881;DHT22;10600;53.096;8.802;2023-05-16T04:12:56;9.10;99.90
20881;DHT22;10600;53.096;8.802;2023-05-16T04:13:57;9.00;99.90
20881;DHT22;10600;53.096;8.802;2023-05-16T04:14:58;9.00;99.90
20881;DHT22;10600;53.096;8.802;2023-05-16T04:15:59;9.00;99.90
20881;DHT22;10600;53.096;8.802;2023-05-16T04:17:00;9.00;99.90
20881;DHT22;10600;53.096;8.802;2023-05-16T04:18:01;9.00;99.90
20881;DHT22;10600;53.096;8.802;2023-05-16T04:19:02;9.00;99.90
20881;DHT22;10600;53.096;8.802;2023-05-16T04:20:03;9.00;99.90
20881;DHT22;10600;53.096;8.802;2023-05-16T04:21:04;9.00;99.90
20881;DHT22;10600;53.096;8.802;2023-05-16T04:22:05;9.00;99.90
20881;DHT22;10600;53.096;8.802;2023-05-16T04:23:07;9.00;99.90
20881;DHT22;10600;53.096;8.802;2023-05-16T04:24:08;9.00;99.90
20881;DHT22;10600;53.096;8.802;2023-05-16T04:25:08;9.00;99.90
20881;DHT22;10600;53.096;8.802;2023-05-16T04:26:10;9.00;99.90
20881;DHT22;10600;53.096;8.802;2023-05-16T04:27:11;9.00;99.90
20881;DHT22;10600;53.096;8.802;2023-05-16T04:28:11;9.00;99.90
20881;DHT22;10600;53.096;8.802;2023-05-16T04:29:12;9.00;99.90
20881;DHT22;10600;53.096;8.802;2023-05-16T04:30:14;9.00;99.90
20881;DHT22;10600;53.096;8.802;2023-05-16T04:31:14;9.00;99.90
20881;DHT22;10600;53.096;8.802;2023-05-16T04:32:15;9.00;99.90
20881;DHT22;10600;53.096;8.802;2023-05-16T04:33:17;9.00;99.90
20881;DHT22;10600;53.096;8.802;2023-05-16T04:34:18;9.00;99.90
20881;DHT22;10600;53.096;8.802;2023-05-16T04:35:18;9.00;99.90
20881;DHT22;10600;53.096;8.802;2023-05-16T04:36:19;9.00;99.90
20881;DHT22;10600;53.096;8.802;2023-05-16T04:37:22;8.90;99.90
20881;DHT22;10600;53.096;8.802;2023-05-16T04:38:23;8.90;99.90
20881;DHT22;10600;53.096;8.802;2023-05-16T04:39:24;8.90;99.90
20881;DHT22;10600;53.096;8.802;2023-05-16T04:40:25;8.90;99.90
20881;DHT22;10600;53.096;8.802;2023-05-16T04:41:27;8.90;99.90
20881;DHT22;10600;53.096;8.802;2023-05-16T04:42:27;8.90;99.90
20881;DHT22;10600;53.096;8.802;2023-05-16T04:43:28;8.90;99.90
20881;DHT22;10600;53.096;8.802;2023-05-16T04:44:29;8.90;99.90
20881;DHT22;10600;53.096;8.802;2023-05-16T04:45:30;8.80;99.90
20881;DHT22;10600;53.096;8.802;2023-05-16T04:46:31;8.90;99.90
20881;DHT22;10600;53.096;8.802;2023-05-16T04:47:32;8.90;99.90
20881;DHT22;10600;53.096;8.802;2023-05-16T04:48:33;8.90;99.90
20881;DHT22;10600;53.096;8.802;2023-05-16T04:49:33;8.90;99.90
20881;DHT22;10600;53.096;8.802;2023-05-16T04:50:34;8.90;99.90
20881;DHT22;10600;53.096;8.802;2023-05-16T04:51:35;8.90;99.90
20881;DHT22;10600;53.096;8.802;2023-05-16T04:52:36;8.90;99.90
20881;DHT22;10600;53.096;8.802;2023-05-16T04:53:37;8.90;99.90
20881;DHT22;10600;53.096;8.802;2023-05-16T04:54:38;8.90;99.90
20881;DHT22;10600;53.096;8.802;2023-05-16T04:55:39;8.90;99.90
20881;DHT22;10600;53.096;8.802;2023-05-16T04:56:40;8.90;99.90
20881;DHT22;10600;53.096;8.802;2023-05-16T04:57:40;8.90;99.90
20881;DHT22;10600;53.096;8.802;2023-05-16T04:58:41;8.90;99.90
20881;DHT22;10600;53.096;8.802;2023-05-16T04:59:42;8.90;99.90
20881;DHT22;10600;53.096;8.802;2023-05-16T05:00:43;8.90;99.90
20881;DHT22;10600;53.096;8.802;2023-05-16T05:01:44;8.90;99.90
20881;DHT22;10600;53.096;8.802;2023-05-16T05:02:44;8.90;99.90
20881;DHT22;10600;53.096;8.802;2023-05-16T05:03:45;8.90;99.90
20881;DHT22;10600;53.096;8.802;2023-05-16T05:04:46;9.00;99.90
20881;DHT22;10600;53.096;8.802;2023-05-16T05:05:47;9.00;99.90
20881;DHT22;10600;53.096;8.802;2023-05-16T05:06:48;8.90;99.90
20881;DHT22;10600;53.096;8.802;2023-05-16T05:07:48;8.90;99.90
20881;DHT22;10600;53.096;8.802;2023-05-16T05:08:49;9.00;99.90
20881;DHT22;10600;53.096;8.802;2023-05-16T05:09:49;9.00;99.90
20881;DHT22;10600;53.096;8.802;2023-05-16T05:10:52;8.90;99.90
20881;DHT22;10600;53.096;8.802;2023-05-16T05:11:52;9.00;99.90
20881;DHT22;10600;53.096;8.802;2023-05-16T05:12:53;9.00;99.90
20881;DHT22;10600;53.096;8.802;2023-05-16T05:13:53;9.00;99.90
20881;DHT22;10600;53.096;8.802;2023-05-16T05:14:54;9.00;99.90
20881;DHT22;10600;53.096;8.802;2023-05-16T05:15:55;9.00;99.90
20881;DHT22;10600;53.096;8.802;2023-05-16T05:16:55;9.00;99.90
20881;DHT22;10600;53.096;8.802;2023-05-16T05:17:56;9.00;99.90
20881;DHT22;10600;53.096;8.802;2023-05-16T05:18:57;9.00;99.90
20881;DHT22;10600;53.096;8.802;2023-05-16T05:19:57;9.00;99.90
20881;DHT22;10600;53.096;8.802;2023-05-16T05:20:58;9.00;99.90
20881;DHT22;10600;53.096;8.802;2023-05-16T05:21:59;9.00;99.90
20881;DHT22;10600;53.096;8.802;2023-05-16T05:23:00;9.00;99.90
20881;DHT22;10600;53.096;8.802;2023-05-16T05:24:00;9.00;99.90
20881;DHT22;10600;53.096;8.802;2023-05-16T05:25:01;8.90;99.90
20881;DHT22;10600;53.096;8.802;2023-05-16T05:26:02;9.00;99.90
20881;DHT22;10600;53.096;8.802;2023-05-16T05:27:03;9.00;99.90
20881;DHT22;10600;53.096;8.802;2023-05-16T05:28:03;9.00;99.90
20881;DHT22;10600;53.096;8.802;2023-05-16T05:29:04;8.90;99.90
20881;DHT22;10600;53.096;8.802;2023-05-16T05:30:06;8.90;99.90
20881;DHT22;10600;53.096;8.802;2023-05-16T05:31:06;8.90;99.90
20881;DHT22;10600;53.096;8.802;2023-05-16T05:32:07;9.00;99.90
20881;DHT22;10600;53.096;8.802;2023-05-16T05:33:09;9.00;99.90
20881;DHT22;10600;53.096;8.802;2023-05-16T05:34:10;9.00;99.90
20881;DHT22;10600;53.096;8.802;2023-05-16T05:35:11;9.00;99.90
20881;DHT22;10600;53.096;8.802;2023-05-16T05:36:11;9.00;99.90
20881;DHT22;10600;53.096;8.802;2023-05-16T05:37:13;9.00;99.90
20881;DHT22;10600;53.096;8.802;2023-05-16T05:38:13;9.00;99.90
20881;DHT22;10600;53.096;8.802;2023-05-16T05:39:14;9.00;99.90
20881;DHT22;10600;53.096;8.802;2023-05-16T05:40:15;9.10;99.90
20881;DHT22;10600;53.096;8.802;2023-05-16T05:41:15;9.10;99.90
20881;DHT22;10600;53.096;8.802;2023-05-16T05:42:16;9.10;99.90
20881;DHT22;10600;53.096;8.802;2023-05-16T05:43:17;9.20;99.90
20881;DHT22;10600;53.096;8.802;2023-05-16T05:44:18;9.20;99.90
20881;DHT22;10600;53.096;8.802;2023-05-16T05:45:18;9.20;99.90
20881;DHT22;10600;53.096;8.802;2023-05-16T05:46:19;9.30;99.90
20881;DHT22;10600;53.096;8.802;2023-05-16T05:47:20;9.30;99.90
20881;DHT22;10600;53.096;8.802;2023-05-16T05:48:21;9.40;99.90
20881;DHT22;10600;53.096;8.802;2023-05-16T05:49:25;9.40;99.90
20881;DHT22;10600;53.096;8.802;2023-05-16T05:50:26;9.50;99.90
20881;DHT22;10600;53.096;8.802;2023-05-16T05:51:26;9.50;99.90
20881;DHT22;10600;53.096;8.802;2023-05-16T05:52:27;9.60;99.90
20881;DHT22;10600;53.096;8.802;2023-05-16T05:53:28;9.60;99.90
20881;DHT22;10600;53.096;8.802;2023-05-16T05:54:29;9.70;99.90
20881;DHT22;10600;53.096;8.802;2023-05-16T05:55:29;9.80;99.90
20881;DHT22;10600;53.096;8.802;2023-05-16T05:56:30;9.80;99.90
20881;DHT22;10600;53.096;8.802;2023-05-16T05:57:30;9.90;99.90
20881;DHT22;10600;53.096;8.802;2023-05-16T05:58:31;9.90;99.90
20881;DHT22;10600;53.096;8.802;2023-05-16T05:59:32;9.90;99.90
20881;DHT22;10600;53.096;8.802;2023-05-16T06:00:33;9.90;99.90
20881;DHT22;10600;53.096;8.802;2023-05-16T06:01:34;9.90;99.90
20881;DHT22;10600;53.096;8.802;2023-05-16T06:02:34;9.90;99.90
20881;DHT22;10600;53.096;8.802;2023-05-16T06:03:35;9.90;99.90
20881;DHT22;10600;53.096;8.802;2023-05-16T06:04:36;9.80;99.90
20881;DHT22;10600;53.096;8.802;2023-05-16T06:05:37;9.90;99.90
20881;DHT22;10600;53.096;8.802;2023-05-16T06:06:37;9.90;99.90
20881;DHT22;10600;53.096;8.802;2023-05-16T06:07:39;9.90;99.90
20881;DHT22;10600;53.096;8.802;2023-05-16T06:08:40;9.80;99.90
20881;DHT22;10600;53.096;8.802;2023-05-16T06:09:41;9.80;99.90
20881;DHT22;10600;53.096;8.802;2023-05-16T06:10:42;9.80;99.90
20881;DHT22;10600;53.096;8.802;2023-05-16T06:11:43;9.90;99.90
20881;DHT22;10600;53.096;8.802;2023-05-16T06:12:45;9.90;99.90
20881;DHT22;10600;53.096;8.802;2023-05-16T06:13:46;10.00;99.90
20881;DHT22;10600;53.096;8.802;2023-05-16T06:14:47;10.10;99.90
20881;DHT22;10600;53.096;8.802;2023-05-16T06:15:51;10.10;99.90
20881;DHT22;10600;53.096;8.802;2023-05-16T06:16:53;10.20;99.90
20881;DHT22;10600;53.096;8.802;2023-05-16T06:17:59;10.20;99.90
20881;DHT22;10600;53.096;8.802;2023-05-16T06:19:00;10.20;99.90
20881;DHT22;10600;53.096;8.802;2023-05-16T06:20:01;10.30;99.90
20881;DHT22;10600;53.096;8.802;2023-05-16T06:21:03;10.30;99.90
20881;DHT22;10600;53.096;8.802;2023-05-16T06:22:04;10.40;99.90
20881;DHT22;10600;53.096;8.802;2023-05-16T06:23:04;10.50;99.90
20881;DHT22;10600;53.096;8.802;2023-05-16T06:24:05;10.50;99.90
20881;DHT22;10600;53.096;8.802;2023-05-16T06:25:06;10.60;99.90
20881;DHT22;10600;53.096;8.802;2023-05-16T06:26:07;10.70;99.90
20881;DHT22;10600;53.096;8.802;2023-05-16T06:27:07;10.70;99.90
20881;DHT22;10600;53.096;8.802;2023-05-16T06:28:08;10.80;99.90
20881;DHT22;10600;53.096;8.802;2023-05-16T06:29:09;10.80;99.90
20881;DHT22;10600;53.096;8.802;2023-05-16T06:30:09;10.80;99.90
20881;DHT22;10600;53.096;8.802;2023-05-16T06:31:11;10.80;99.90
20881;DHT22;10600;53.096;8.802;2023-05-16T06:32:11;10.90;99.90
20881;DHT22;10600;53.096;8.802;2023-05-16T06:33:13;10.90;99.90
20881;DHT22;10600;53.096;8.802;2023-05-16T06:34:14;11.00;99.90
20881;DHT22;10600;53.096;8.802;2023-05-16T06:35:15;11.00;99.90
20881;DHT22;10600;53.096;8.802;2023-05-16T06:36:16;11.00;99.90
20881;DHT22;10600;53.096;8.802;2023-05-16T06:37:16;11.00;99.90
20881;DHT22;10600;53.096;8.802;2023-05-16T06:38:18;11.00;99.90
20881;DHT22;10600;53.096;8.802;2023-05-16T06:39:21;11.00;99.90
20881;DHT22;10600;53.096;8.802;2023-05-16T06:40:22;11.00;99.90
20881;DHT22;10600;53.096;8.802;2023-05-16T06:41:22;11.00;99.90
20881;DHT22;10600;53.096;8.802;2023-05-16T06:42:23;11.10;99.90
20881;DHT22;10600;53.096;8.802;2023-05-16T06:43:24;11.10;99.90
20881;DHT22;10600;53.096;8.802;2023-05-16T06:44:24;11.10;99.90
20881;DHT22;10600;53.096;8.802;2023-05-16T06:45:28;11.00;99.90
20881;DHT22;10600;53.096;8.802;2023-05-16T06:46:29;11.00;99.90